Time;durP1;ratioP1;P1;durP2;ratioP2;P2;SDS_P1;SDS_P2;PMS_P1;PMS_P2;Temp;Humidity;BMP_temperature;BMP_pressure;BME280_temperature;BME280_humidity;BME280_pressure;Samples;Min_cycle;Max_cycle;Signal;HPM_P1;HPM_P2
2024/01/23 00:00:28;;;;;;;20.60;4.97;;;;;;;5.67;100.00;101306.19;1033448;28;20313;-86
2024/01/23 00:01:00;;;;;;;24.98;4.68;;;;;;;5.76;100.00;101315.75;1032184;28;20312;-86
2024/01/23 00:01:33;;;;;;;18.17;6.38;;;;;;;5.74;100.00;101307.16;1037899;28;20311;-86
2024/01/23 00:02:05;;;;;;;25.00;5.18;;;;;;;5.72;100.00;101319.72;1033474;28;20317;-86
2024/01/23 00:02:37;;;;;;;26.70;6.80;;;;;;;5.74;100.00;101316.91;1039517;28;20301;-86
2024/01/23 00:03:09;;;;;;;32.00;6.30;;;;;;;5.75;100.00;101319.41;1033251;28;20289;-86
2024/01/23 00:03:40;;;;;;;29.90;4.75;;;;;;;5.77;100.00;101312.13;1033881;28;20456;-86
2024/01/23 00:04:12;;;;;;;24.88;3.65;;;;;;;5.76;100.00;101307.81;1039792;28;20351;-85
2024/01/23 00:04:44;;;;;;;20.17;4.68;;;;;;;5.81;100.00;101313.41;1035640;28;20343;-86
2024/01/23 00:05:15;;;;;;;26.02;4.97;;;;;;;5.76;100.00;101314.94;1033398;28;20305;-86
2024/01/23 00:05:47;;;;;;;23.83;4.25;;;;;;;5.75;100.00;101308.81;1029173;28;20306;-86
2024/01/23 00:06:19;;;;;;;30.70;5.55;;;;;;;5.79;100.00;101310.13;1035931;28;20399;-87
2024/01/23 00:06:50;;;;;;;22.05;4.78;;;;;;;5.94;100.00;101312.03;1031851;28;20301;-86
2024/01/23 00:07:22;;;;;;;19.10;5.30;;;;;;;5.86;100.00;101315.53;1034079;28;20477;-86
2024/01/23 00:07:54;;;;;;;22.52;3.97;;;;;;;5.84;100.00;101312.25;1021342;28;20722;-86
2024/01/23 00:08:25;;;;;;;17.83;4.03;;;;;;;5.94;100.00;101301.47;1032081;28;20787;-86
2024/01/23 00:08:58;;;;;;;21.52;4.93;;;;;;;5.89;100.00;101310.75;1034070;28;20308;-86
2024/01/23 00:09:29;;;;;;;16.75;3.75;;;;;;;5.80;100.00;101303.84;1027616;28;20298;-86
2024/01/23 00:10:01;;;;;;;24.25;5.72;;;;;;;5.82;100.00;101317.69;1030726;28;20305;-86
2024/01/23 00:10:32;;;;;;;20.95;4.63;;;;;;;5.81;100.00;101316.06;1029895;28;20317;-86
2024/01/23 00:11:05;;;;;;;18.67;4.43;;;;;;;5.75;100.00;101308.81;1035175;28;20308;-86
2024/01/23 00:11:37;;;;;;;24.08;4.15;;;;;;;5.78;100.00;101312.94;1039872;28;20314;-86
2024/01/23 00:12:09;;;;;;;18.65;4.15;;;;;;;5.83;100.00;101311.41;1033797;28;20308;-86
2024/01/23 00:12:40;;;;;;;15.48;3.47;;;;;;;5.89;100.00;101310.75;1039537;28;20379;-86
2024/01/23 00:13:12;;;;;;;22.88;4.22;;;;;;;5.96;100.00;101304.75;1030279;28;20807;-86
2024/01/23 00:13:45;;;;;;;22.55;4.18;;;;;;;6.04;100.00;101307.38;1029090;28;20684;-86
2024/01/23 00:14:17;;;;;;;27.85;4.07;;;;;;;5.96;100.00;101302.13;1031482;28;20304;-86
2024/01/23 00:14:49;;;;;;;14.55;3.83;;;;;;;5.96;100.00;101315.34;1034376;28;20301;-86
2024/01/23 00:15:20;;;;;;;18.95;4.85;;;;;;;5.97;100.00;101303.75;1036338;28;20533;-86
2024/01/23 00:15:52;;;;;;;20.67;7.15;;;;;;;5.97;100.00;101306.41;1037224;28;20300;-86
2024/01/23 00:16:24;;;;;;;17.42;3.05;;;;;;;5.91;100.00;101312.38;1031702;28;20302;-86
2024/01/23 00:16:55;;;;;;;17.85;4.93;;;;;;;5.86;100.00;101316.34;1025453;28;20523;-86
2024/01/23 00:17:27;;;;;;;25.63;4.97;;;;;;;5.84;100.00;101306.94;1031739;28;20305;-86
2024/01/23 00:17:59;;;;;;;21.05;4.53;;;;;;;5.83;100.00;101322.00;1035620;28;20370;-86
2024/01/23 00:18:31;;;;;;;23.23;5.80;;;;;;;5.99;100.00;101325.56;1031620;28;20353;-86
2024/01/23 00:19:02;;;;;;;17.35;5.05;;;;;;;5.88;100.00;101330.22;1027718;28;20290;-86
2024/01/23 00:19:34;;;;;;;22.05;4.30;;;;;;;5.81;100.00;101324.00;1032175;28;20308;-86
2024/01/23 00:20:07;;;;;;;26.73;4.50;;;;;;;5.87;100.00;101331.22;1034152;28;20388;-85
2024/01/23 00:20:39;;;;;;;18.50;3.67;;;;;;;5.85;100.00;101329.75;1036578;28;20640;-86
2024/01/23 00:21:10;;;;;;;13.82;3.33;;;;;;;5.85;100.00;101330.56;1039939;28;20307;-86
2024/01/23 00:21:42;;;;;;;24.48;4.10;;;;;;;5.84;100.00;101338.66;1035698;28;20347;-86
2024/01/23 00:22:14;;;;;;;19.13;3.80;;;;;;;5.87;100.00;101341.78;1032581;28;20318;-85
2024/01/23 00:22:45;;;;;;;19.75;3.72;;;;;;;5.83;100.00;101344.97;1031639;28;20301;-86
2024/01/23 00:23:17;;;;;;;25.95;5.00;;;;;;;5.91;100.00;101338.84;1031112;28;20312;-86
2024/01/23 00:23:48;;;;;;;16.60;4.85;;;;;;;5.93;100.00;101342.13;1031737;28;20799;-87
2024/01/23 00:24:20;;;;;;;23.38;5.35;;;;;;;5.93;100.00;101344.75;1025478;28;20310;-86
2024/01/23 00:24:51;;;;;;;19.58;3.80;;;;;;;5.90;100.00;101359.16;1031752;28;20297;-85
2024/01/23 00:25:23;;;;;;;18.63;3.88;;;;;;;5.84;100.00;101354.53;1031799;28;20304;-86
2024/01/23 00:25:55;;;;;;;15.32;5.00;;;;;;;5.83;100.00;101358.19;1033195;28;20294;-86
2024/01/23 00:26:26;;;;;;;21.20;3.55;;;;;;;5.81;100.00;101363.63;1037545;28;20366;-86
2024/01/23 00:26:58;;;;;;;27.75;4.95;;;;;;;5.87;100.00;101362.94;1035530;28;20292;-86
2024/01/23 00:27:29;;;;;;;18.75;3.85;;;;;;;5.94;100.00;101362.28;1030204;28;20321;-86
2024/01/23 00:28:01;;;;;;;11.52;2.50;;;;;;;5.93;100.00;101356.16;1034347;28;20320;-86
2024/01/23 00:28:33;;;;;;;24.52;3.85;;;;;;;5.98;100.00;101364.41;1037843;28;20299;-86
2024/01/23 00:29:07;;;;;;;26.50;4.47;;;;;;;6.01;100.00;101360.56;1033190;28;20307;-86
2024/01/23 00:29:39;;;;;;;16.13;3.80;;;;;;;5.92;100.00;101362.44;1039568;28;20402;-86
2024/01/23 00:30:12;;;;;;;17.27;3.25;;;;;;;5.96;100.00;101362.91;1034052;28;20303;-86
2024/01/23 00:30:44;;;;;;;19.05;4.38;;;;;;;5.87;100.00;101365.59;1029949;28;20309;-86
2024/01/23 00:31:16;;;;;;;17.83;4.35;;;;;;;5.83;100.00;101361.66;1030465;28;20376;-86
2024/01/23 00:31:47;;;;;;;20.80;5.60;;;;;;;5.86;100.00;101363.13;1028887;28;20297;-85
2024/01/23 00:32:19;;;;;;;21.83;4.28;;;;;;;5.82;100.00;101367.94;1031350;28;20364;-86
2024/01/23 00:32:51;;;;;;;21.90;3.33;;;;;;;5.97;100.00;101367.22;1031748;28;20297;-86
2024/01/23 00:33:22;;;;;;;23.00;3.97;;;;;;;5.95;100.00;101366.56;1035777;28;20366;-86
2024/01/23 00:33:54;;;;;;;13.50;3.40;;;;;;;5.97;100.00;101361.94;1031550;28;20289;-86
2024/01/23 00:34:26;;;;;;;14.25;4.28;;;;;;;5.96;100.00;101358.47;1029992;28;20305;-86
2024/01/23 00:34:58;;;;;;;19.63;4.22;;;;;;;5.94;100.00;101360.47;1029164;28;20351;-86
2024/01/23 00:35:30;;;;;;;23.90;4.50;;;;;;;5.97;100.00;101354.00;1035204;28;20366;-86
2024/01/23 00:36:01;;;;;;;13.82;2.83;;;;;;;5.92;100.00;101356.34;1033744;28;20308;-86
2024/01/23 00:36:33;;;;;;;16.45;4.05;;;;;;;5.96;100.00;101362.91;1035528;28;20305;-86
2024/01/23 00:37:05;;;;;;;12.52;3.08;;;;;;;6.04;100.00;101360.25;1036248;28;20301;-85
2024/01/23 00:37:37;;;;;;;20.80;3.00;;;;;;;6.08;100.00;101358.91;1027498;28;20301;-86
2024/01/23 00:38:08;;;;;;;23.15;3.60;;;;;;;6.08;100.00;101364.19;1033622;28;20297;-85
2024/01/23 00:38:40;;;;;;;16.85;3.55;;;;;;;6.05;100.00;101361.91;1033173;28;20321;-86
2024/01/23 00:39:12;;;;;;;15.85;4.07;;;;;;;6.04;100.00;101357.63;1033333;28;20304;-86
2024/01/23 00:39:45;;;;;;;18.45;2.88;;;;;;;6.11;100.00;101355.91;1027486;28;20314;-86
2024/01/23 00:40:17;;;;;;;16.40;2.58;;;;;;;6.08;100.00;101367.66;1027570;28;20298;-85
2024/01/23 00:40:48;;;;;;;22.58;3.42;;;;;;;6.09;100.00;101373.78;1027424;28;21728;-86
2024/01/23 00:41:20;;;;;;;26.20;3.55;;;;;;;6.03;100.00;101379.78;1028231;28;20401;-86
2024/01/23 00:41:51;;;;;;;18.85;4.90;;;;;;;6.01;100.00;101353.47;1030155;28;20305;-87
2024/01/23 00:42:23;;;;;;;20.60;3.03;;;;;;;6.06;100.00;101380.25;1035493;28;20308;-86
2024/01/23 00:42:55;;;;;;;21.75;4.45;;;;;;;6.03;100.00;101370.00;1033723;28;20794;-86
2024/01/23 00:43:27;;;;;;;24.05;5.40;;;;;;;6.12;100.00;101363.66;1033248;28;20309;-86
2024/01/23 00:43:59;;;;;;;18.77;5.28;;;;;;;6.12;100.00;101378.72;1033215;28;20301;-86
2024/01/23 00:44:30;;;;;;;24.48;3.22;;;;;;;6.09;100.00;101365.84;1036851;28;20316;-86
2024/01/23 00:45:03;;;;;;;18.92;3.20;;;;;;;6.15;100.00;101373.06;1038156;28;20304;-86
2024/01/23 00:45:35;;;;;;;21.20;4.18;;;;;;;6.12;100.00;101381.38;1037396;28;20382;-86
2024/01/23 00:46:07;;;;;;;17.63;3.03;;;;;;;6.08;100.00;101378.25;1031841;28;20305;-86
2024/01/23 00:46:38;;;;;;;13.73;2.72;;;;;;;6.08;100.00;101377.44;1028721;28;20298;-86
2024/01/23 00:47:12;;;;;;;16.27;2.63;;;;;;;6.08;100.00;101372.13;1028927;28;20792;-87
2024/01/23 00:47:43;;;;;;;19.45;2.40;;;;;;;6.11;100.00;101383.19;1034115;28;20293;-86
2024/01/23 00:48:15;;;;;;;19.60;4.38;;;;;;;6.12;100.00;101378.72;1034287;28;20311;-86
2024/01/23 00:48:47;;;;;;;15.57;4.43;;;;;;;6.12;100.00;101384.00;1033787;28;20302;-86
2024/01/23 00:49:19;;;;;;;24.73;4.50;;;;;;;6.12;100.00;101371.59;1032793;28;20309;-86
2024/01/23 00:49:50;;;;;;;18.50;3.55;;;;;;;6.17;100.00;101376.38;1023705;28;20805;-86
2024/01/23 00:50:22;;;;;;;14.13;2.25;;;;;;;6.16;100.00;101390.59;1031936;28;20833;-86
2024/01/23 00:50:54;;;;;;;15.55;3.15;;;;;;;6.08;100.00;101382.72;1037932;28;20307;-86
2024/01/23 00:51:27;;;;;;;23.88;3.08;;;;;;;6.07;100.00;101375.78;1033843;28;20308;-86
2024/01/23 00:51:59;;;;;;;24.13;4.15;;;;;;;6.08;100.00;101385.34;1033763;28;20355;-86
2024/01/23 00:52:30;;;;;;;24.38;4.10;;;;;;;6.07;100.00;101389.00;1031444;28;20309;-86
2024/01/23 00:53:02;;;;;;;18.48;3.55;;;;;;;6.10;100.00;101380.72;1037854;28;20794;-86
2024/01/23 00:53:36;;;;;;;24.88;4.97;;;;;;;6.09;100.00;101384.34;1027263;28;20360;-86
2024/01/23 00:54:08;;;;;;;22.15;3.92;;;;;;;6.12;100.00;101384.00;1029557;28;20814;-86
2024/01/23 00:54:40;;;;;;;16.20;3.40;;;;;;;6.07;100.00;101391.66;1027604;28;20298;-86
2024/01/23 00:55:12;;;;;;;9.55;3.05;;;;;;;6.09;100.00;101384.34;1027662;28;20306;-86
2024/01/23 00:55:43;;;;;;;19.25;3.30;;;;;;;6.12;100.00;101378.72;1031815;28;20289;-86
2024/01/23 00:56:15;;;;;;;21.65;5.97;;;;;;;6.12;100.00;101384.00;1025502;28;20734;-86
2024/01/23 00:56:46;;;;;;;16.77;4.47;;;;;;;6.08;100.00;101388.00;1033262;28;20345;-86
2024/01/23 00:57:18;;;;;;;19.80;3.47;;;;;;;6.08;100.00;101382.72;1033115;28;20356;-86
2024/01/23 00:57:49;;;;;;;20.10;3.28;;;;;;;6.07;100.00;101381.88;1039527;28;20372;-86
2024/01/23 00:58:21;;;;;;;11.68;3.03;;;;;;;6.05;100.00;101385.72;1033039;28;20316;-86
2024/01/23 00:58:53;;;;;;;12.07;4.32;;;;;;;6.10;100.00;101386.81;1039207;28;20319;-86
2024/01/23 00:59:24;;;;;;;14.43;4.30;;;;;;;6.18;100.00;101388.59;1030936;28;20301;-86
2024/01/23 00:59:56;;;;;;;15.80;2.95;;;;;;;6.09;100.00;101394.94;1029783;28;20293;-86
2024/01/23 01:00:27;;;;;;;15.32;2.70;;;;;;;6.01;100.00;101394.94;1039344;28;20353;-86
2024/01/23 01:00:59;;;;;;;13.65;3.05;;;;;;;6.05;100.00;101398.94;1037409;28;20303;-86
2024/01/23 01:01:31;;;;;;;21.40;4.30;;;;;;;6.15;100.00;101395.06;1035570;28;20299;-86
2024/01/23 01:02:03;;;;;;;10.05;1.98;;;;;;;6.10;100.00;101401.88;1031489;28;20736;-86
2024/01/23 01:02:34;;;;;;;20.08;3.78;;;;;;;6.08;100.00;101398.59;1033664;28;20386;-86
2024/01/23 01:03:06;;;;;;;18.42;4.55;;;;;;;6.04;100.00;101402.56;1035664;28;20289;-86
2024/01/23 01:03:39;;;;;;;15.07;2.30;;;;;;;6.09;100.00;101405.50;1037824;28;20299;-86
2024/01/23 01:04:10;;;;;;;21.67;4.78;;;;;;;6.11;100.00;101414.09;1031438;28;20881;-86
2024/01/23 01:04:46;;;;;;;19.50;4.78;;;;;;;6.07;100.00;101405.69;1032938;28;20304;-86
2024/01/23 01:05:18;;;;;;;19.33;3.75;;;;;;;6.00;100.00;101414.47;1037660;28;20385;-86
2024/01/23 01:05:50;;;;;;;17.35;3.78;;;;;;;6.02;100.00;101407.19;1028745;28;20321;-86
2024/01/23 01:06:21;;;;;;;17.90;3.35;;;;;;;5.97;100.00;101412.16;1032132;28;20308;-86
2024/01/23 01:06:53;;;;;;;20.85;4.22;;;;;;;6.00;100.00;101417.94;1033549;28;20410;-86
2024/01/23 01:07:25;;;;;;;15.00;3.20;;;;;;;6.00;100.00;101407.34;1032149;28;20293;-86
2024/01/23 01:07:57;;;;;;;15.95;3.80;;;;;;;5.99;100.00;101410.16;1027630;28;20338;-86
2024/01/23 01:08:29;;;;;;;15.15;3.03;;;;;;;5.98;100.00;101413.81;1033357;28;20308;-86
2024/01/23 01:09:02;;;;;;;18.23;2.83;;;;;;;5.94;100.00;101413.34;1033725;28;20389;-86
2024/01/23 01:09:34;;;;;;;22.80;4.63;;;;;;;5.96;100.00;101411.34;1035666;28;20307;-86
2024/01/23 01:10:06;;;;;;;23.48;3.13;;;;;;;6.01;100.00;101418.75;1031438;28;20359;-86
2024/01/23 01:10:38;;;;;;;19.48;4.18;;;;;;;6.09;100.00;101419.56;1033522;28;20675;-87
2024/01/23 01:11:10;;;;;;;18.77;4.10;;;;;;;6.06;100.00;101421.72;1033692;28;20297;-86
2024/01/23 01:11:41;;;;;;;19.58;3.03;;;;;;;6.08;100.00;101425.84;1028185;28;20356;-86
2024/01/23 01:12:13;;;;;;;15.13;3.13;;;;;;;6.02;100.00;101421.22;1028146;28;20317;-86
2024/01/23 01:12:44;;;;;;;15.00;3.03;;;;;;;6.03;100.00;101417.63;1032452;28;20333;-86
2024/01/23 01:13:16;;;;;;;13.85;3.55;;;;;;;6.05;100.00;101425.38;1027895;28;20298;-86
2024/01/23 01:13:48;;;;;;;22.05;3.90;;;;;;;6.02;100.00;101421.22;1029796;28;20298;-86
2024/01/23 01:14:20;;;;;;;15.50;4.03;;;;;;;6.03;100.00;101422.06;1031531;28;20317;-86
2024/01/23 01:14:51;;;;;;;17.58;4.60;;;;;;;6.08;100.00;101419.72;1034359;28;20304;-86
2024/01/23 01:15:23;;;;;;;17.20;3.90;;;;;;;6.01;100.00;101424.88;1034586;28;20300;-86
2024/01/23 01:15:55;;;;;;;15.73;2.92;;;;;;;5.94;100.00;101420.44;1031351;28;20301;-86
2024/01/23 01:16:26;;;;;;;20.30;4.10;;;;;;;5.97;100.00;101434.16;1032051;28;20392;-86
2024/01/23 01:16:58;;;;;;;14.63;3.40;;;;;;;5.97;100.00;101438.59;1035666;28;20308;-86
2024/01/23 01:17:29;;;;;;;14.40;4.72;;;;;;;5.96;100.00;101443.06;1031832;28;20300;-86
2024/01/23 01:18:01;;;;;;;17.10;3.90;;;;;;;5.91;100.00;101423.44;1029600;28;20305;-86
2024/01/23 01:18:36;;;;;;;15.20;3.15;;;;;;;5.97;100.00;101435.97;1032610;28;20392;-86
2024/01/23 01:19:08;;;;;;;12.65;4.20;;;;;;;5.99;100.00;101436.63;1033713;28;20725;-86
2024/01/23 01:19:40;;;;;;;16.58;4.35;;;;;;;5.87;100.00;101434.31;1042847;28;20303;-87
2024/01/23 01:20:11;;;;;;;18.80;3.95;;;;;;;5.85;100.00;101441.59;1037297;28;20293;-86
2024/01/23 01:20:44;;;;;;;13.18;3.60;;;;;;;5.84;100.00;101439.13;1034579;28;20328;-86
2024/01/23 01:21:15;;;;;;;13.50;2.53;;;;;;;5.93;100.00;101435.47;1027963;28;20305;-86
2024/01/23 01:21:47;;;;;;;18.63;2.80;;;;;;;5.88;100.00;101445.72;1039801;28;20304;-86
2024/01/23 01:22:19;;;;;;;20.88;4.22;;;;;;;5.80;100.00;101443.13;1033526;28;20664;-86
2024/01/23 01:22:51;;;;;;;16.67;3.40;;;;;;;5.87;100.00;101438.78;1033552;28;20308;-86
2024/01/23 01:23:22;;;;;;;14.05;3.60;;;;;;;5.91;100.00;101450.69;1028960;28;20301;-86
2024/01/23 01:23:54;;;;;;;15.10;3.60;;;;;;;5.92;100.00;101451.53;1024537;28;20302;-86
2024/01/23 01:24:25;;;;;;;18.02;3.28;;;;;;;5.89;100.00;101458.81;1030764;28;20293;-86
2024/01/23 01:24:57;;;;;;;13.27;2.70;;;;;;;5.91;100.00;101455.16;1034702;28;20394;-86
2024/01/23 01:25:29;;;;;;;12.75;5.10;;;;;;;5.86;100.00;101431.84;1043740;28;20311;-86
2024/01/23 01:26:04;;;;;;;12.25;3.63;;;;;;;5.92;100.00;101457.63;1033357;28;20315;-86
2024/01/23 01:26:38;;;;;;;17.30;2.90;;;;;;;5.84;100.00;101449.72;1033975;28;20352;-86
2024/01/23 01:27:09;;;;;;;14.48;2.95;;;;;;;5.86;100.00;101443.25;1033916;28;20301;-86
2024/01/23 01:27:41;;;;;;;18.58;3.90;;;;;;;5.87;100.00;101452.81;1035656;28;20507;-86
2024/01/23 01:28:14;;;;;;;13.80;3.75;;;;;;;5.83;100.00;101456.00;1039079;28;20292;-86
2024/01/23 01:28:46;;;;;;;19.15;3.75;;;;;;;5.81;100.00;101453.50;1034092;28;20443;-86
2024/01/23 01:29:18;;;;;;;16.13;3.05;;;;;;;5.88;100.00;101449.19;1023091;28;20313;-86
2024/01/23 01:29:49;;;;;;;16.25;4.03;;;;;;;5.83;100.00;101456.81;1030595;28;20301;-86
2024/01/23 01:30:28;;;;;;;20.42;3.50;;;;;;;5.84;100.00;101442.59;1031811;28;20313;-86
2024/01/23 01:30:59;;;;;;;22.55;4.45;;;;;;;5.91;100.00;101449.88;1032119;28;20316;-87
2024/01/23 01:31:31;;;;;;;20.60;4.03;;;;;;;5.87;100.00;101460.75;1029322;28;20657;-86
2024/01/23 01:32:03;;;;;;;16.92;4.30;;;;;;;5.88;100.00;101451.84;1032735;28;20351;-86
2024/01/23 01:32:35;;;;;;;15.70;3.17;;;;;;;5.94;100.00;101449.53;1028231;28;20344;-86
2024/01/23 01:33:07;;;;;;;11.00;3.33;;;;;;;5.98;100.00;101445.53;1030621;28;20333;-86
2024/01/23 01:33:38;;;;;;;14.05;2.65;;;;;;;5.92;100.00;101451.53;1031603;28;20309;-86
2024/01/23 01:34:11;;;;;;;20.92;4.30;;;;;;;5.94;100.00;101457.47;1027451;28;20823;-86
2024/01/23 01:34:43;;;;;;;22.52;4.07;;;;;;;5.92;100.00;101451.53;1033378;28;20683;-86
2024/01/23 01:35:15;;;;;;;17.05;3.20;;;;;;;5.94;100.00;101457.47;1034949;28;20304;-86
2024/01/23 01:35:46;;;;;;;13.98;2.78;;;;;;;5.92;100.00;101456.81;1031810;28;20317;-86
2024/01/23 01:36:18;;;;;;;17.63;3.80;;;;;;;5.94;100.00;101446.88;1033674;28;20332;-86
2024/01/23 01:36:50;;;;;;;15.35;2.90;;;;;;;5.91;100.00;101463.09;1034527;28;20296;-86
2024/01/23 01:37:22;;;;;;;26.38;4.72;;;;;;;5.91;100.00;101455.16;1035741;28;20773;-86
2024/01/23 01:37:53;;;;;;;22.90;4.45;;;;;;;5.86;100.00;101459.09;1036811;28;20297;-86
2024/01/23 01:38:25;;;;;;;21.77;3.58;;;;;;;5.81;100.00;101453.50;1034857;28;20301;-86
2024/01/23 01:39:00;;;;;;;13.85;3.65;;;;;;;5.82;100.00;101463.09;1039828;28;20291;-86
2024/01/23 01:39:31;;;;;;;15.32;4.25;;;;;;;5.79;100.00;101457.31;1039445;28;20899;-86
2024/01/23 01:40:04;;;;;;;13.50;3.15;;;;;;;5.84;100.00;101444.41;1031900;28;20301;-86
2024/01/23 01:40:35;;;;;;;15.52;3.28;;;;;;;5.92;100.00;101443.59;1037515;28;20303;-86
2024/01/23 01:41:07;;;;;;;17.70;3.03;;;;;;;5.89;100.00;101453.50;1034102;28;20806;-86
2024/01/23 01:41:39;;;;;;;13.52;3.45;;;;;;;5.84;100.00;101455.81;1031251;28;20329;-86
2024/01/23 01:42:10;;;;;;;22.73;4.00;;;;;;;5.84;100.00;101449.72;1027159;28;20293;-86
2024/01/23 01:42:43;;;;;;;18.10;3.28;;;;;;;5.93;100.00;101458.47;1032048;28;20302;-86
2024/01/23 01:43:27;;;;;;;12.18;4.55;;;;;;;5.85;100.00;101461.94;1036255;28;20304;-86
2024/01/23 01:43:58;;;;;;;12.27;2.65;;;;;;;5.86;100.00;101459.09;1031714;28;20799;-86
2024/01/23 01:44:32;;;;;;;15.38;2.90;;;;;;;5.94;100.00;101438.94;1035299;28;20827;-86
2024/01/23 01:45:06;;;;;;;18.35;3.17;;;;;;;5.89;100.00;101453.50;1034361;28;20386;-86
2024/01/23 01:45:38;;;;;;;14.15;3.10;;;;;;;5.86;100.00;101443.25;1032198;28;20380;-86
2024/01/23 01:46:21;;;;;;;18.42;3.97;;;;;;;5.85;100.00;101462.75;1030842;28;20308;-86
2024/01/23 01:46:52;;;;;;;17.27;3.40;;;;;;;5.83;100.00;101462.09;1033721;28;20668;-86
2024/01/23 01:47:24;;;;;;;18.38;3.22;;;;;;;5.86;100.00;101458.28;1034942;28;20310;-86
2024/01/23 01:47:56;;;;;;;23.58;3.03;;;;;;;5.83;100.00;101459.47;1037447;28;20301;-86
2024/01/23 01:48:29;;;;;;;12.88;4.00;;;;;;;5.85;100.00;101465.41;1037155;28;20311;-86
2024/01/23 01:49:01;;;;;;;18.58;3.10;;;;;;;5.87;100.00;101467.88;1030721;28;20569;-86
2024/01/23 01:49:33;;;;;;;24.73;3.75;;;;;;;5.95;100.00;101452.00;1028327;28;20302;-87
2024/01/23 01:50:08;;;;;;;17.13;2.97;;;;;;;5.93;100.00;101463.75;1029644;28;20312;-86
2024/01/23 01:50:39;;;;;;;16.02;4.05;;;;;;;6.05;100.00;101462.41;1028321;28;20298;-86
2024/01/23 01:51:11;;;;;;;24.98;6.20;;;;;;;6.01;100.00;101455.78;1026719;28;20726;-86
2024/01/23 01:51:43;;;;;;;21.50;3.90;;;;;;;6.06;100.00;101464.88;1026944;28;20302;-86
2024/01/23 01:52:15;;;;;;;15.73;3.00;;;;;;;5.97;100.00;101457.94;1028877;28;20310;-86
2024/01/23 01:52:47;;;;;;;19.17;4.15;;;;;;;5.96;100.00;101458.09;1032036;28;20652;-86
2024/01/23 01:53:19;;;;;;;29.60;4.32;;;;;;;5.94;100.00;101468.03;1033709;28;20355;-86
2024/01/23 01:53:51;;;;;;;13.25;4.53;;;;;;;5.87;100.00;101460.75;1032134;28;20678;-86
2024/01/23 01:54:22;;;;;;;15.60;3.25;;;;;;;5.87;100.00;101471.34;1033549;28;20309;-86
2024/01/23 01:54:55;;;;;;;10.52;3.05;;;;;;;5.87;100.00;101473.97;1039535;28;20300;-86
2024/01/23 01:55:26;;;;;;;19.70;3.15;;;;;;;5.87;100.00;101459.94;1033330;28;20293;-86
2024/01/23 01:55:58;;;;;;;16.50;3.97;;;;;;;5.86;100.00;101461.75;1031498;28;20659;-86
2024/01/23 01:56:31;;;;;;;15.85;3.00;;;;;;;5.80;100.00;101465.09;1035264;28;20305;-86
2024/01/23 01:57:03;;;;;;;13.75;4.78;;;;;;;5.77;100.00;101457.50;1028278;28;20337;-86
2024/01/23 01:57:41;;;;;;;19.67;3.67;;;;;;;5.70;100.00;101469.72;1031081;28;20320;-86
2024/01/23 01:58:14;;;;;;;14.95;2.95;;;;;;;5.70;100.00;101464.44;1031478;28;20293;-86
2024/01/23 01:58:46;;;;;;;21.25;3.95;;;;;;;5.72;100.00;101467.72;1028355;28;20302;-86
2024/01/23 01:59:20;;;;;;;27.95;5.90;;;;;;;5.68;100.00;101465.59;1034740;28;20664;-86
2024/01/23 01:59:52;;;;;;;15.27;2.72;;;;;;;5.69;100.00;101472.53;1033023;28;20388;-86
2024/01/23 02:00:23;;;;;;;17.92;3.30;;;;;;;5.71;100.00;101481.94;1028112;28;20775;-87
2024/01/23 02:00:56;;;;;;;13.05;2.90;;;;;;;5.67;100.00;101488.56;1033526;28;20312;-86
2024/01/23 02:01:27;;;;;;;17.83;4.25;;;;;;;5.60;100.00;101471.72;1027897;28;20325;-86
2024/01/23 02:02:00;;;;;;;20.20;4.28;;;;;;;5.75;100.00;101467.41;1035539;28;20289;-87
2024/01/23 02:02:32;;;;;;;17.63;4.07;;;;;;;5.73;100.00;101485.22;1031456;28;20313;-86
2024/01/23 02:03:03;;;;;;;20.17;3.00;;;;;;;5.76;100.00;101490.22;1025424;28;20303;-85
2024/01/23 02:03:35;;;;;;;10.30;2.60;;;;;;;5.67;100.00;101491.19;1035403;28;20304;-86
2024/01/23 02:04:07;;;;;;;15.38;3.55;;;;;;;5.65;100.00;101490.53;1027674;28;20378;-86
2024/01/23 02:04:39;;;;;;;10.27;3.88;;;;;;;5.67;100.00;101480.63;1029633;28;20305;-86
2024/01/23 02:05:10;;;;;;;19.48;3.25;;;;;;;5.63;100.00;101500.47;1029541;28;20810;-86
2024/01/23 02:05:42;;;;;;;14.43;4.45;;;;;;;5.61;100.00;101504.28;1027294;28;20310;-86
2024/01/23 02:06:14;;;;;;;15.57;3.47;;;;;;;5.59;100.00;101507.06;1034276;28;20301;-86
2024/01/23 02:06:46;;;;;;;11.30;5.18;;;;;;;5.55;100.00;101489.91;1040475;28;20304;-86
2024/01/23 02:07:18;;;;;;;23.60;3.05;;;;;;;5.54;100.00;101494.38;1040195;28;20288;-85
2024/01/23 02:07:50;;;;;;;17.73;4.20;;;;;;;5.52;100.00;101504.28;1037476;28;20307;-86
2024/01/23 02:08:22;;;;;;;18.30;3.53;;;;;;;5.52;100.00;101500.81;1035152;28;20311;-86
2024/01/23 02:08:54;;;;;;;19.80;3.33;;;;;;;5.46;100.00;101512.03;1035359;28;20305;-86
2024/01/23 02:09:26;;;;;;;18.23;2.45;;;;;;;5.62;100.00;101496.16;1032203;28;20305;-86
2024/01/23 02:09:58;;;;;;;14.10;4.28;;;;;;;5.54;100.00;101509.41;1036586;28;20752;-86
2024/01/23 02:10:29;;;;;;;14.98;2.95;;;;;;;5.53;100.00;101515.69;1031466;28;20400;-86
2024/01/23 02:11:02;;;;;;;18.80;3.30;;;;;;;5.50;100.00;101523.94;1029201;28;20301;-86
2024/01/23 02:11:34;;;;;;;22.10;4.20;;;;;;;5.52;100.00;101520.13;1027559;28;20806;-86
2024/01/23 02:12:07;;;;;;;25.77;4.53;;;;;;;5.43;100.00;101502.63;1025299;28;20972;-86
2024/01/23 02:12:40;;;;;;;20.10;4.18;;;;;;;5.47;100.00;101529.53;1031389;28;20305;-86
2024/01/23 02:13:12;;;;;;;12.27;2.72;;;;;;;5.41;100.00;101525.75;1033426;28;20830;-86
2024/01/23 02:13:44;;;;;;;12.68;3.42;;;;;;;5.38;100.00;101527.88;1035047;28;20396;-86
2024/01/23 02:14:15;;;;;;;23.83;4.05;;;;;;;5.34;100.00;101527.41;1034680;28;20310;-86
2024/01/23 02:14:47;;;;;;;18.02;3.28;;;;;;;5.34;100.00;101526.56;1033694;28;20305;-86
2024/01/23 02:15:19;;;;;;;15.65;2.95;;;;;;;5.32;100.00;101545.22;1029421;28;20305;-86
2024/01/23 02:15:53;;;;;;;13.88;3.00;;;;;;;5.29;100.00;101542.91;1031653;28;20308;-86
2024/01/23 02:16:25;;;;;;;14.20;3.65;;;;;;;5.30;100.00;101525.25;1028978;28;20294;-86
2024/01/23 02:16:56;;;;;;;19.60;5.10;;;;;;;5.33;100.00;101535.50;1035299;28;20315;-86
2024/01/23 02:17:28;;;;;;;14.77;2.78;;;;;;;5.27;100.00;101545.72;1033453;28;20308;-86
2024/01/23 02:18:00;;;;;;;17.33;4.13;;;;;;;5.19;100.00;101529.84;1032768;28;20298;-86
2024/01/23 02:18:32;;;;;;;17.02;3.85;;;;;;;5.27;100.00;101529.88;1029994;28;20309;-86
2024/01/23 02:19:03;;;;;;;16.40;2.92;;;;;;;5.28;100.00;101534.16;1031421;28;20309;-86
2024/01/23 02:19:35;;;;;;;13.23;4.70;;;;;;;5.39;100.00;101535.66;1032139;28;20544;-86
2024/01/23 02:20:07;;;;;;;14.95;2.80;;;;;;;5.31;100.00;101535.66;1037007;28;20292;-86
2024/01/23 02:20:39;;;;;;;17.83;3.22;;;;;;;5.28;100.00;101542.09;1036521;28;20342;-86
2024/01/23 02:21:11;;;;;;;23.70;3.63;;;;;;;5.21;100.00;101551.69;1027979;28;20316;-86
2024/01/23 02:21:43;;;;;;;21.02;2.95;;;;;;;5.28;100.00;101552.66;1025715;28;20836;-85
2024/01/23 02:22:14;;;;;;;17.30;3.03;;;;;;;5.19;100.00;101543.06;1028945;28;20310;-87
2024/01/23 02:22:46;;;;;;;13.23;3.25;;;;;;;5.24;100.00;101553.16;1035697;28;20314;-86
2024/01/23 02:23:17;;;;;;;18.45;4.13;;;;;;;5.17;100.00;101549.50;1033467;28;20402;-86
2024/01/23 02:23:49;;;;;;;15.70;2.40;;;;;;;5.18;100.00;101554.63;1037578;28;20347;-86
2024/01/23 02:24:24;;;;;;;21.48;4.80;;;;;;;5.21;100.00;101546.41;1027027;28;20820;-86
2024/01/23 02:24:55;;;;;;;13.32;3.75;;;;;;;5.23;100.00;101557.63;1030100;28;20286;-87
2024/01/23 02:25:27;;;;;;;17.92;2.88;;;;;;;5.19;100.00;101540.41;1025126;28;20301;-86
2024/01/23 02:25:58;;;;;;;19.10;5.05;;;;;;;5.19;100.00;101553.63;1025652;28;20378;-86
2024/01/23 02:26:30;;;;;;;16.98;3.40;;;;;;;5.21;100.00;101541.09;1033273;28;20308;-86
2024/01/23 02:27:02;;;;;;;16.00;2.85;;;;;;;5.18;100.00;101553.78;1030641;28;20720;-86
2024/01/23 02:27:34;;;;;;;9.02;3.13;;;;;;;5.18;100.00;101554.63;1035429;28;20308;-86